createdAt,value
2022-11-17T00:00:06.385Z,100.00
2022-11-17T00:05:11.129Z,100.00
2022-11-17T00:10:13.454Z,100.00
2022-11-17T00:15:15.295Z,100.00
2022-11-17T00:20:35.586Z,100.00
2022-11-17T00:25:37.550Z,100.00
2022-11-17T00:30:57.780Z,100.00
2022-11-17T00:35:59.591Z,100.00
2022-11-17T00:41:01.486Z,100.00
2022-11-17T00:46:03.200Z,100.00
2022-11-17T00:51:05.819Z,100.00
2022-11-17T00:56:07.578Z,100.00
2022-11-17T01:01:09.573Z,100.00
2022-11-17T01:06:14.154Z,100.00
2022-11-17T01:11:18.702Z,100.00
2022-11-17T01:16:21.235Z,100.00
2022-11-17T01:21:25.212Z,100.00
2022-11-17T01:26:30.628Z,100.00
2022-11-17T01:31:35.355Z,100.00
2022-11-17T01:36:58.511Z,100.00
2022-11-17T01:42:05.245Z,100.00
2022-11-17T01:47:17.580Z,100.00
2022-11-17T01:52:19.390Z,100.00
2022-11-17T01:57:32.399Z,100.00
2022-11-17T02:02:35.772Z,100.00
2022-11-17T02:07:40.641Z,100.00
2022-11-17T02:12:43.633Z,100.00
2022-11-17T02:17:45.453Z,100.00
2022-11-17T02:22:59.533Z,100.00
2022-11-17T02:28:15.229Z,100.00
2022-11-17T02:33:35.276Z,100.00
2022-11-17T02:38:49.099Z,100.00
2022-11-17T02:44:09.118Z,100.00
2022-11-17T02:49:38.361Z,100.00
2022-11-17T02:54:40.067Z,100.00
2022-11-17T02:59:48.080Z,100.00
2022-11-17T03:05:05.513Z,100.00
2022-11-17T03:10:13.539Z,100.00
2022-11-17T03:15:24.629Z,100.00
2022-11-17T03:20:34.665Z,100.00
2022-11-17T03:25:38.177Z,100.00
2022-11-17T03:30:43.820Z,100.00
2022-11-17T03:36:00.911Z,100.00
2022-11-17T03:41:05.589Z,99.71
2022-11-17T03:46:13.025Z,99.97
2022-11-17T03:51:21.893Z,99.95
2022-11-17T03:56:50.746Z,100.00
2022-11-17T04:01:52.976Z,100.00
2022-11-17T04:06:54.727Z,100.00
2022-11-17T04:12:15.002Z,100.00
2022-11-17T04:17:16.639Z,100.00
2022-11-17T04:22:18.328Z,100.00
2022-11-17T04:27:38.929Z,100.00
2022-11-17T04:32:40.657Z,100.00
2022-11-17T04:37:42.372Z,100.00
2022-11-17T04:42:43.986Z,100.00
2022-11-17T04:47:45.628Z,100.00
2022-11-17T04:52:47.444Z,100.00
2022-11-17T04:57:49.103Z,100.00
2022-11-17T05:02:50.959Z,100.00
2022-11-17T05:07:52.651Z,100.00
2022-11-17T05:13:12.777Z,100.00
2022-11-17T05:18:14.446Z,100.00
2022-11-17T05:23:34.727Z,100.00
2022-11-17T05:28:36.581Z,100.00
2022-11-17T05:33:38.635Z,100.00
2022-11-17T05:38:41.208Z,99.99
2022-11-17T05:43:43.438Z,100.00
2022-11-17T05:48:46.330Z,100.00
2022-11-17T05:53:48.397Z,100.00
2022-11-17T05:58:54.123Z,100.00
2022-11-17T06:04:02.169Z,100.00
2022-11-17T06:09:04.529Z,100.00
2022-11-17T06:14:06.405Z,100.00
2022-11-17T06:19:16.208Z,100.00
2022-11-17T06:24:18.767Z,100.00
2022-11-17T06:29:20.540Z,100.00
2022-11-17T06:34:22.261Z,100.00
2022-11-17T06:39:24.056Z,99.44
2022-11-17T06:44:25.712Z,98.14
2022-11-17T06:49:27.434Z,98.32
2022-11-17T06:54:29.176Z,96.59
2022-11-17T06:59:31.031Z,96.57
2022-11-17T07:04:32.796Z,96.25
2022-11-17T07:09:34.491Z,96.78
2022-11-17T07:14:36.149Z,97.21
2022-11-17T07:19:38.243Z,97.25
2022-11-17T07:24:40.295Z,98.27
2022-11-17T07:29:41.923Z,99.02
2022-11-17T07:34:43.584Z,98.70
2022-11-17T07:39:45.263Z,96.94
2022-11-17T07:44:46.943Z,96.90
2022-11-17T07:49:48.860Z,96.86
2022-11-17T07:54:50.536Z,96.74
2022-11-17T07:59:52.191Z,96.12
2022-11-17T08:04:53.835Z,96.17
2022-11-17T08:09:55.461Z,96.10
2022-11-17T08:14:57.150Z,96.46
2022-11-17T08:19:58.842Z,96.76
2022-11-17T08:25:00.512Z,97.55
2022-11-17T08:30:02.171Z,97.68
2022-11-17T08:35:06.797Z,97.92
2022-11-17T08:40:09.236Z,97.85
2022-11-17T08:45:11.111Z,98.18
2022-11-17T08:50:13.995Z,98.24
2022-11-17T08:55:15.847Z,98.63
2022-11-17T09:00:20.635Z,99.03
2022-11-17T09:05:23.338Z,99.20
2022-11-17T09:10:25.138Z,99.45
2022-11-17T09:15:26.857Z,99.49
2022-11-17T09:20:29.008Z,99.78
2022-11-17T09:25:30.825Z,99.53
2022-11-17T09:30:32.493Z,99.91
2022-11-17T09:35:34.218Z,100.00
2022-11-17T09:40:38.555Z,100.00
2022-11-17T09:45:40.600Z,100.00
2022-11-17T09:50:44.964Z,100.00
2022-11-17T09:55:50.239Z,100.00
2022-11-17T10:00:53.734Z,100.00
2022-11-17T10:05:56.329Z,100.00
2022-11-17T10:10:57.926Z,100.00
2022-11-17T10:16:07.886Z,100.00
2022-11-17T10:21:09.663Z,100.00
2022-11-17T10:26:14.024Z,100.00
2022-11-17T10:31:17.687Z,100.00
2022-11-17T10:36:26.652Z,100.00
2022-11-17T10:41:42.644Z,100.00
2022-11-17T10:47:00.560Z,100.00
2022-11-17T10:52:16.346Z,100.00
2022-11-17T10:57:23.800Z,100.00
2022-11-17T11:02:38.174Z,100.00
2022-11-17T11:07:40.881Z,100.00
2022-11-17T11:12:53.579Z,100.00
2022-11-17T11:17:55.234Z,100.00
2022-11-17T11:22:59.822Z,100.00
2022-11-17T11:28:35.483Z,99.73
2022-11-17T11:33:41.380Z,98.81
2022-11-17T11:39:05.179Z,98.49
2022-11-17T11:44:25.596Z,98.31
2022-11-17T11:50:00.944Z,98.66
2022-11-17T11:55:18.915Z,99.71
2022-11-17T12:00:20.864Z,100.00
2022-11-17T12:05:38.903Z,100.00
2022-11-17T12:10:58.884Z,99.86
2022-11-17T12:16:17.974Z,99.17
2022-11-17T12:21:30.451Z,99.03
2022-11-17T12:26:33.736Z,98.91
2022-11-17T12:31:44.100Z,98.56
2022-11-17T12:37:14.825Z,98.08
2022-11-17T12:42:16.534Z,97.47
2022-11-17T12:47:24.514Z,96.33
2022-11-17T12:52:40.566Z,96.08
2022-11-17T12:57:45.667Z,95.88
2022-11-17T13:03:19.251Z,93.67
2022-11-17T13:08:23.690Z,90.76
2022-11-17T13:13:25.368Z,89.42
2022-11-17T13:18:33.049Z,88.62
2022-11-17T13:23:44.457Z,88.26
2022-11-17T13:28:47.573Z,87.34
2022-11-17T13:34:17.684Z,86.77
2022-11-17T13:39:24.246Z,86.70
2022-11-17T13:44:28.945Z,85.14
2022-11-17T13:49:34.611Z,83.58
2022-11-17T13:54:36.337Z,80.26
2022-11-17T13:59:39.086Z,78.03
2022-11-17T14:04:41.588Z,77.84
2022-11-17T14:09:43.285Z,77.64
2022-11-17T14:14:45.325Z,77.67
2022-11-17T14:19:47.793Z,77.92
2022-11-17T14:24:50.086Z,78.49
2022-11-17T14:29:51.824Z,79.39
2022-11-17T14:34:53.530Z,80.16
2022-11-17T14:39:55.472Z,81.23
2022-11-17T14:44:57.207Z,82.62
2022-11-17T14:49:58.891Z,83.74
2022-11-17T14:55:00.887Z,85.01
2022-11-17T15:00:04.150Z,85.77
2022-11-17T15:05:06.983Z,86.79
2022-11-17T15:10:08.912Z,87.38
2022-11-17T15:15:10.768Z,88.12
2022-11-17T15:20:12.584Z,88.42
2022-11-17T15:25:14.336Z,88.59
2022-11-17T15:30:16.492Z,88.71
2022-11-17T15:35:18.204Z,89.15
2022-11-17T15:40:20.079Z,89.19
2022-11-17T15:45:21.948Z,89.31
2022-11-17T15:50:23.656Z,89.72
2022-11-17T15:55:25.442Z,89.96
2022-11-17T16:00:27.071Z,90.17
2022-11-17T16:05:28.757Z,90.64
2022-11-17T16:10:30.349Z,90.99
2022-11-17T16:15:32.013Z,91.49
2022-11-17T16:20:33.769Z,91.79
2022-11-17T16:25:46.778Z,92.09
2022-11-17T16:30:48.347Z,92.45
2022-11-17T16:35:50.238Z,92.14
2022-11-17T16:40:52.002Z,92.58
2022-11-17T16:45:53.688Z,92.07
2022-11-17T16:50:55.352Z,91.35
2022-11-17T16:56:03.570Z,91.24
2022-11-17T17:01:12.794Z,91.86
2022-11-17T17:06:16.948Z,91.83
2022-11-17T17:11:20.080Z,91.71
2022-11-17T17:16:22.658Z,92.56
2022-11-17T17:21:24.424Z,93.51
2022-11-17T17:26:28.695Z,94.17
2022-11-17T17:31:33.228Z,94.81
2022-11-17T17:36:36.425Z,94.98
2022-11-17T17:41:40.148Z,95.50
2022-11-17T17:46:42.856Z,95.89
2022-11-17T17:51:44.822Z,96.40
2022-11-17T17:56:47.396Z,97.25
2022-11-17T18:01:49.602Z,97.94
2022-11-17T18:06:51.420Z,98.21
2022-11-17T18:11:53.239Z,98.35
2022-11-17T18:16:55.124Z,98.39
2022-11-17T18:21:56.786Z,98.43
2022-11-17T18:26:58.568Z,98.66
2022-11-17T18:32:00.314Z,98.92
2022-11-17T18:37:02.158Z,98.93
2022-11-17T18:42:04.324Z,98.54
2022-11-17T18:47:06.071Z,98.20
2022-11-17T18:52:09.744Z,98.21
2022-11-17T18:57:11.364Z,98.36
2022-11-17T19:02:13.093Z,98.06
2022-11-17T19:07:15.417Z,98.14
2022-11-17T19:12:18.907Z,98.13
2022-11-17T19:17:21.874Z,97.78
2022-11-17T19:22:23.792Z,97.60
2022-11-17T19:27:25.497Z,97.24
2022-11-17T19:32:27.159Z,96.96
2022-11-17T19:37:28.990Z,96.85
2022-11-17T19:42:30.697Z,97.10
2022-11-17T19:47:32.653Z,96.88
2022-11-17T19:52:34.707Z,96.79
2022-11-17T19:57:36.527Z,97.06
2022-11-17T20:02:38.156Z,97.37
2022-11-17T20:07:39.838Z,97.55
2022-11-17T20:12:43.319Z,97.34
2022-11-17T20:17:45.000Z,96.56
2022-11-17T20:22:46.960Z,96.36
2022-11-17T20:27:48.606Z,96.12
2022-11-17T20:32:50.279Z,95.52
2022-11-17T20:37:51.905Z,94.82
2022-11-17T20:42:53.576Z,94.50
2022-11-17T20:47:55.626Z,94.17
2022-11-17T20:52:57.322Z,93.62
2022-11-17T20:57:59.110Z,93.19
2022-11-17T21:03:00.814Z,92.58
2022-11-17T21:08:02.518Z,91.68
2022-11-17T21:13:04.178Z,91.50
2022-11-17T21:18:23.965Z,90.96
2022-11-17T21:23:27.243Z,89.79
2022-11-17T21:28:29.522Z,90.02
2022-11-17T21:33:31.223Z,88.98
2022-11-17T21:38:33.286Z,87.51
2022-11-17T21:43:39.674Z,86.06
2022-11-17T21:48:42.182Z,84.95
2022-11-17T21:53:44.601Z,83.77
2022-11-17T21:58:46.314Z,83.91
2022-11-17T22:03:48.059Z,84.65
2022-11-17T22:08:50.762Z,85.35
2022-11-17T22:13:52.441Z,85.60
2022-11-17T22:18:54.569Z,85.75
2022-11-17T22:23:56.611Z,85.55
2022-11-17T22:28:59.427Z,85.48
2022-11-17T22:34:01.016Z,85.67
2022-11-17T22:39:03.625Z,86.12
2022-11-17T22:44:06.360Z,86.48
2022-11-17T22:49:08.101Z,86.76
2022-11-17T22:54:10.081Z,87.08
2022-11-17T22:59:11.992Z,87.64
2022-11-17T23:04:14.084Z,88.54
2022-11-17T23:09:16.042Z,88.73
2022-11-17T23:14:18.060Z,89.13
2022-11-17T23:19:20.084Z,89.48
2022-11-17T23:24:22.097Z,90.11
2022-11-17T23:29:23.787Z,90.37
2022-11-17T23:34:27.434Z,91.02
2022-11-17T23:39:29.252Z,91.59
2022-11-17T23:44:30.972Z,92.28
2022-11-17T23:49:32.733Z,92.56
2022-11-17T23:54:34.486Z,92.79
2022-11-17T23:59:36.506Z,93.38
